sensor_id;sensor_type;location;lat;lon;timestamp;temperature;humidity
39503;DHT22;26970;49.900;10.774;2023-03-21T00:02:05;7.80;99.90
39503;DHT22;26970;49.900;10.774;2023-03-21T00:04:31;7.80;99.90
39503;DHT22;26970;49.900;10.774;2023-03-21T00:06:57;7.80;99.90
39503;DHT22;26970;49.900;10.774;2023-03-21T00:09:22;7.80;99.90
39503;DHT22;26970;49.900;10.774;2023-03-21T00:11:48;7.70;99.90
39503;DHT22;26970;49.900;10.774;2023-03-21T00:14:14;7.70;99.90
39503;DHT22;26970;49.900;10.774;2023-03-21T00:16:44;7.70;99.90
39503;DHT22;26970;49.900;10.774;2023-03-21T00:19:15;7.60;99.90
39503;DHT22;26970;49.900;10.774;2023-03-21T00:21:41;7.60;99.90
39503;DHT22;26970;49.900;10.774;2023-03-21T00:24:07;7.60;99.90
39503;DHT22;26970;49.900;10.774;2023-03-21T00:26:33;7.60;99.90
39503;DHT22;26970;49.900;10.774;2023-03-21T00:28:59;7.60;99.90
39503;DHT22;26970;49.900;10.774;2023-03-21T00:31:25;7.60;99.90
39503;DHT22;26970;49.900;10.774;2023-03-21T00:33:51;7.60;99.90
39503;DHT22;26970;49.900;10.774;2023-03-21T00:36:17;7.60;99.90
39503;DHT22;26970;49.900;10.774;2023-03-21T00:38:42;7.50;99.90
39503;DHT22;26970;49.900;10.774;2023-03-21T00:41:10;7.50;99.90
39503;DHT22;26970;49.900;10.774;2023-03-21T00:43:36;7.40;99.90
39503;DHT22;26970;49.900;10.774;2023-03-21T00:46:02;7.50;99.90
39503;DHT22;26970;49.900;10.774;2023-03-21T00:48:29;7.50;99.90
39503;DHT22;26970;49.900;10.774;2023-03-21T00:50:55;7.50;99.90
39503;DHT22;26970;49.900;10.774;2023-03-21T00:53:22;7.50;99.90
39503;DHT22;26970;49.900;10.774;2023-03-21T00:55:48;7.50;99.90
39503;DHT22;26970;49.900;10.774;2023-03-21T00:58:14;7.50;99.90
39503;DHT22;26970;49.900;10.774;2023-03-21T01:00:41;7.50;99.90
39503;DHT22;26970;49.900;10.774;2023-03-21T01:03:09;7.50;99.90
39503;DHT22;26970;49.900;10.774;2023-03-21T01:05:40;7.50;99.90
39503;DHT22;26970;49.900;10.774;2023-03-21T01:08:42;7.40;99.90
39503;DHT22;26970;49.900;10.774;2023-03-21T01:11:11;7.40;99.90
39503;DHT22;26970;49.900;10.774;2023-03-21T01:13:37;7.40;99.90
39503;DHT22;26970;49.900;10.774;2023-03-21T01:16:04;7.40;99.90
39503;DHT22;26970;49.900;10.774;2023-03-21T01:18:31;7.50;99.90
39503;DHT22;26970;49.900;10.774;2023-03-21T01:20:59;7.50;99.90
39503;DHT22;26970;49.900;10.774;2023-03-21T01:23:26;7.40;99.90
39503;DHT22;26970;49.900;10.774;2023-03-21T01:25:53;7.40;99.90
39503;DHT22;26970;49.900;10.774;2023-03-21T01:28:20;7.40;99.90
39503;DHT22;26970;49.900;10.774;2023-03-21T01:30:47;7.40;99.90
39503;DHT22;26970;49.900;10.774;2023-03-21T01:33:13;7.40;99.90
39503;DHT22;26970;49.900;10.774;2023-03-21T01:35:38;7.40;99.90
39503;DHT22;26970;49.900;10.774;2023-03-21T01:38:04;7.30;99.90
39503;DHT22;26970;49.900;10.774;2023-03-21T01:40:30;7.30;99.90
39503;DHT22;26970;49.900;10.774;2023-03-21T01:42:56;7.30;99.90
39503;DHT22;26970;49.900;10.774;2023-03-21T01:48:26;7.20;99.90
39503;DHT22;26970;49.900;10.774;2023-03-21T01:50:52;7.20;99.90
39503;DHT22;26970;49.900;10.774;2023-03-21T01:53:24;7.30;99.90
39503;DHT22;26970;49.900;10.774;2023-03-21T01:55:58;7.20;99.90
39503;DHT22;26970;49.900;10.774;2023-03-21T01:58:25;7.20;99.90
39503;DHT22;26970;49.900;10.774;2023-03-21T02:00:52;7.20;99.90
39503;DHT22;26970;49.900;10.774;2023-03-21T02:03:19;7.20;99.90
39503;DHT22;26970;49.900;10.774;2023-03-21T02:06:01;7.20;99.90
39503;DHT22;26970;49.900;10.774;2023-03-21T02:08:31;7.10;99.90
39503;DHT22;26970;49.900;10.774;2023-03-21T02:10:58;7.20;99.90
39503;DHT22;26970;49.900;10.774;2023-03-21T02:13:24;7.10;99.90
39503;DHT22;26970;49.900;10.774;2023-03-21T02:16:12;7.00;99.90
39503;DHT22;26970;49.900;10.774;2023-03-21T02:18:49;7.00;99.90
39503;DHT22;26970;49.900;10.774;2023-03-21T02:21:39;7.00;99.90
39503;DHT22;26970;49.900;10.774;2023-03-21T02:34:44;6.70;99.90
39503;DHT22;26970;49.900;10.774;2023-03-21T02:37:20;6.70;99.90
39503;DHT22;26970;49.900;10.774;2023-03-21T02:40:00;6.60;99.90
39503;DHT22;26970;49.900;10.774;2023-03-21T02:42:43;6.60;99.90
39503;DHT22;26970;49.900;10.774;2023-03-21T02:45:19;6.60;99.90
39503;DHT22;26970;49.900;10.774;2023-03-21T02:47:48;6.60;99.90
39503;DHT22;26970;49.900;10.774;2023-03-21T02:50:32;6.60;99.90
39503;DHT22;26970;49.900;10.774;2023-03-21T02:52:59;6.70;99.90
39503;DHT22;26970;49.900;10.774;2023-03-21T02:55:27;6.70;99.90
39503;DHT22;26970;49.900;10.774;2023-03-21T02:57:56;6.70;99.90
39503;DHT22;26970;49.900;10.774;2023-03-21T03:00:28;6.70;99.90
39503;DHT22;26970;49.900;10.774;2023-03-21T03:02:54;6.70;99.90
39503;DHT22;26970;49.900;10.774;2023-03-21T03:05:23;6.60;99.90
39503;DHT22;26970;49.900;10.774;2023-03-21T03:19:27;6.70;99.90
39503;DHT22;26970;49.900;10.774;2023-03-21T03:22:18;6.60;99.90
39503;DHT22;26970;49.900;10.774;2023-03-21T03:25:01;6.60;99.90
39503;DHT22;26970;49.900;10.774;2023-03-21T03:27:31;6.60;99.90
39503;DHT22;26970;49.900;10.774;2023-03-21T03:29:59;6.60;99.90
39503;DHT22;26970;49.900;10.774;2023-03-21T03:35:04;6.60;99.90
39503;DHT22;26970;49.900;10.774;2023-03-21T03:37:32;6.70;99.90
39503;DHT22;26970;49.900;10.774;2023-03-21T03:40:00;6.60;99.90
39503;DHT22;26970;49.900;10.774;2023-03-21T03:42:34;6.70;99.90
39503;DHT22;26970;49.900;10.774;2023-03-21T03:45:01;6.70;99.90
39503;DHT22;26970;49.900;10.774;2023-03-21T03:52:46;6.60;99.90
39503;DHT22;26970;49.900;10.774;2023-03-21T03:55:16;6.60;99.90
39503;DHT22;26970;49.900;10.774;2023-03-21T03:57:43;6.60;99.90
39503;DHT22;26970;49.900;10.774;2023-03-21T04:00:11;6.60;99.90
39503;DHT22;26970;49.900;10.774;2023-03-21T04:02:38;6.60;99.90
39503;DHT22;26970;49.900;10.774;2023-03-21T04:05:04;6.60;99.90
39503;DHT22;26970;49.900;10.774;2023-03-21T04:07:30;6.60;99.90
39503;DHT22;26970;49.900;10.774;2023-03-21T04:09:56;6.60;99.90
39503;DHT22;26970;49.900;10.774;2023-03-21T04:12:22;6.60;99.90
39503;DHT22;26970;49.900;10.774;2023-03-21T04:14:49;6.50;99.90
39503;DHT22;26970;49.900;10.774;2023-03-21T04:17:14;6.50;99.90
39503;DHT22;26970;49.900;10.774;2023-03-21T04:19:40;6.20;99.90
39503;DHT22;26970;49.900;10.774;2023-03-21T04:22:06;6.50;99.90
39503;DHT22;26970;49.900;10.774;2023-03-21T04:24:32;6.50;99.90
39503;DHT22;26970;49.900;10.774;2023-03-21T04:26:59;6.50;99.90
39503;DHT22;26970;49.900;10.774;2023-03-21T04:29:25;6.50;99.90
39503;DHT22;26970;49.900;10.774;2023-03-21T04:31:54;6.50;99.90
39503;DHT22;26970;49.900;10.774;2023-03-21T04:34:20;6.40;99.90
39503;DHT22;26970;49.900;10.774;2023-03-21T04:36:51;6.40;99.90
39503;DHT22;26970;49.900;10.774;2023-03-21T04:39:19;6.40;99.90
39503;DHT22;26970;49.900;10.774;2023-03-21T04:41:45;6.40;99.90
39503;DHT22;26970;49.900;10.774;2023-03-21T04:44:13;6.40;99.90
39503;DHT22;26970;49.900;10.774;2023-03-21T04:46:39;6.40;99.90
39503;DHT22;26970;49.900;10.774;2023-03-21T04:49:04;6.40;99.90
39503;DHT22;26970;49.900;10.774;2023-03-21T04:51:32;6.30;99.90
39503;DHT22;26970;49.900;10.774;2023-03-21T04:53:57;6.30;99.90
39503;DHT22;26970;49.900;10.774;2023-03-21T04:56:27;6.30;99.90
39503;DHT22;26970;49.900;10.774;2023-03-21T04:59:05;6.30;99.90
39503;DHT22;26970;49.900;10.774;2023-03-21T05:01:31;6.30;99.90
39503;DHT22;26970;49.900;10.774;2023-03-21T05:03:58;6.30;99.90
39503;DHT22;26970;49.900;10.774;2023-03-21T05:06:24;6.30;99.90
39503;DHT22;26970;49.900;10.774;2023-03-21T05:08:51;6.30;99.90
39503;DHT22;26970;49.900;10.774;2023-03-21T05:11:16;6.30;99.90
39503;DHT22;26970;49.900;10.774;2023-03-21T05:13:42;6.30;99.90
39503;DHT22;26970;49.900;10.774;2023-03-21T05:16:08;6.30;99.90
39503;DHT22;26970;49.900;10.774;2023-03-21T05:18:34;6.30;99.90
39503;DHT22;26970;49.900;10.774;2023-03-21T05:21:03;6.20;99.90
39503;DHT22;26970;49.900;10.774;2023-03-21T05:23:32;6.20;99.90
39503;DHT22;26970;49.900;10.774;2023-03-21T05:26:06;6.20;99.90
39503;DHT22;26970;49.900;10.774;2023-03-21T05:28:32;6.10;99.90
39503;DHT22;26970;49.900;10.774;2023-03-21T05:31:01;6.10;99.90
39503;DHT22;26970;49.900;10.774;2023-03-21T05:33:27;6.10;99.90
39503;DHT22;26970;49.900;10.774;2023-03-21T05:35:53;6.20;99.90
39503;DHT22;26970;49.900;10.774;2023-03-21T05:38:19;6.20;99.90
39503;DHT22;26970;49.900;10.774;2023-03-21T05:40:49;6.30;99.90
39503;DHT22;26970;49.900;10.774;2023-03-21T05:43:15;6.30;99.90
39503;DHT22;26970;49.900;10.774;2023-03-21T05:45:40;6.40;99.90
39503;DHT22;26970;49.900;10.774;2023-03-21T05:48:06;6.40;99.90
39503;DHT22;26970;49.900;10.774;2023-03-21T05:50:32;6.40;99.90
39503;DHT22;26970;49.900;10.774;2023-03-21T05:52:57;6.40;99.90
39503;DHT22;26970;49.900;10.774;2023-03-21T05:55:23;6.40;99.90
39503;DHT22;26970;49.900;10.774;2023-03-21T05:57:49;6.40;99.90
39503;DHT22;26970;49.900;10.774;2023-03-21T06:00:15;6.40;99.90
39503;DHT22;26970;49.900;10.774;2023-03-21T06:02:41;6.40;99.90
39503;DHT22;26970;49.900;10.774;2023-03-21T06:05:07;6.50;99.90
39503;DHT22;26970;49.900;10.774;2023-03-21T06:07:33;6.50;99.90
39503;DHT22;26970;49.900;10.774;2023-03-21T06:09:59;6.50;99.90
39503;DHT22;26970;49.900;10.774;2023-03-21T06:12:25;6.60;99.90
39503;DHT22;26970;49.900;10.774;2023-03-21T06:14:50;6.70;99.90
39503;DHT22;26970;49.900;10.774;2023-03-21T06:17:16;6.70;99.90
39503;DHT22;26970;49.900;10.774;2023-03-21T06:19:42;6.80;99.90
39503;DHT22;26970;49.900;10.774;2023-03-21T06:22:07;6.80;99.90
39503;DHT22;26970;49.900;10.774;2023-03-21T06:24:33;8.10;99.90
39503;DHT22;26970;49.900;10.774;2023-03-21T06:26:58;6.80;99.90
39503;DHT22;26970;49.900;10.774;2023-03-21T06:29:24;6.90;99.90
39503;DHT22;26970;49.900;10.774;2023-03-21T06:31:50;6.90;99.90
39503;DHT22;26970;49.900;10.774;2023-03-21T06:34:15;7.00;99.90
39503;DHT22;26970;49.900;10.774;2023-03-21T06:36:41;7.00;99.90
39503;DHT22;26970;49.900;10.774;2023-03-21T06:39:09;7.10;99.90
39503;DHT22;26970;49.900;10.774;2023-03-21T06:41:35;7.10;99.90
39503;DHT22;26970;49.900;10.774;2023-03-21T06:44:01;7.10;99.90
39503;DHT22;26970;49.900;10.774;2023-03-21T06:46:28;7.20;99.90
39503;DHT22;26970;49.900;10.774;2023-03-21T06:48:54;7.30;99.90
39503;DHT22;26970;49.900;10.774;2023-03-21T06:51:20;7.30;99.90
39503;DHT22;26970;49.900;10.774;2023-03-21T06:53:45;7.40;99.90
39503;DHT22;26970;49.900;10.774;2023-03-21T06:56:13;7.60;99.90
39503;DHT22;26970;49.900;10.774;2023-03-21T06:58:39;7.70;99.90
39503;DHT22;26970;49.900;10.774;2023-03-21T07:01:05;7.90;99.90
39503;DHT22;26970;49.900;10.774;2023-03-21T07:03:31;8.10;99.90
39503;DHT22;26970;49.900;10.774;2023-03-21T07:05:57;8.30;99.90
39503;DHT22;26970;49.900;10.774;2023-03-21T07:08:23;8.50;99.90
39503;DHT22;26970;49.900;10.774;2023-03-21T07:10:48;8.60;99.90
39503;DHT22;26970;49.900;10.774;2023-03-21T07:13:15;8.70;99.90
39503;DHT22;26970;49.900;10.774;2023-03-21T07:15:40;8.60;99.90
39503;DHT22;26970;49.900;10.774;2023-03-21T07:18:08;8.70;99.90
39503;DHT22;26970;49.900;10.774;2023-03-21T07:20:35;8.90;99.90
39503;DHT22;26970;49.900;10.774;2023-03-21T07:23:02;9.00;99.90
39503;DHT22;26970;49.900;10.774;2023-03-21T07:25:28;9.10;99.90
39503;DHT22;26970;49.900;10.774;2023-03-21T07:27:54;9.20;99.90
39503;DHT22;26970;49.900;10.774;2023-03-21T07:30:20;9.40;99.90
39503;DHT22;26970;49.900;10.774;2023-03-21T07:32:46;9.50;99.90
39503;DHT22;26970;49.900;10.774;2023-03-21T07:35:14;9.70;99.90
39503;DHT22;26970;49.900;10.774;2023-03-21T07:37:43;10.00;99.90
39503;DHT22;26970;49.900;10.774;2023-03-21T07:40:10;10.10;99.90
39503;DHT22;26970;49.900;10.774;2023-03-21T07:42:39;10.20;99.90
39503;DHT22;26970;49.900;10.774;2023-03-21T07:45:05;10.10;99.90
39503;DHT22;26970;49.900;10.774;2023-03-21T07:47:32;10.20;99.90
39503;DHT22;26970;49.900;10.774;2023-03-21T07:49:58;10.30;99.90
39503;DHT22;26970;49.900;10.774;2023-03-21T07:52:24;10.20;99.90
39503;DHT22;26970;49.900;10.774;2023-03-21T07:54:49;10.20;99.90
39503;DHT22;26970;49.900;10.774;2023-03-21T07:57:15;10.30;99.90
39503;DHT22;26970;49.900;10.774;2023-03-21T07:59:41;10.30;99.90
39503;DHT22;26970;49.900;10.774;2023-03-21T08:02:16;10.40;99.90
39503;DHT22;26970;49.900;10.774;2023-03-21T08:04:42;10.40;99.90
39503;DHT22;26970;49.900;10.774;2023-03-21T08:07:08;10.50;99.90
39503;DHT22;26970;49.900;10.774;2023-03-21T08:09:34;10.30;99.90
39503;DHT22;26970;49.900;10.774;2023-03-21T08:12:01;10.30;99.90
39503;DHT22;26970;49.900;10.774;2023-03-21T08:14:27;10.40;99.90
39503;DHT22;26970;49.900;10.774;2023-03-21T08:16:52;10.30;99.90
39503;DHT22;26970;49.900;10.774;2023-03-21T08:19:18;10.40;99.90
39503;DHT22;26970;49.900;10.774;2023-03-21T08:21:46;10.50;99.90
39503;DHT22;26970;49.900;10.774;2023-03-21T08:24:12;10.60;99.90
39503;DHT22;26970;49.900;10.774;2023-03-21T08:26:38;10.70;99.90
39503;DHT22;26970;49.900;10.774;2023-03-21T08:29:03;10.80;99.90
39503;DHT22;26970;49.900;10.774;2023-03-21T08:31:29;10.80;99.90
39503;DHT22;26970;49.900;10.774;2023-03-21T08:33:55;10.80;99.90
39503;DHT22;26970;49.900;10.774;2023-03-21T08:36:22;11.80;99.90
39503;DHT22;26970;49.900;10.774;2023-03-21T08:38:48;10.90;99.90
39503;DHT22;26970;49.900;10.774;2023-03-21T08:41:18;11.00;99.90
39503;DHT22;26970;49.900;10.774;2023-03-21T08:43:47;11.10;99.90
39503;DHT22;26970;49.900;10.774;2023-03-21T08:46:12;10.90;99.90
39503;DHT22;26970;49.900;10.774;2023-03-21T08:48:38;11.00;99.90
39503;DHT22;26970;49.900;10.774;2023-03-21T08:51:04;11.10;99.90
39503;DHT22;26970;49.900;10.774;2023-03-21T08:53:31;11.20;99.90
39503;DHT22;26970;49.900;10.774;2023-03-21T08:55:56;11.30;99.90
39503;DHT22;26970;49.900;10.774;2023-03-21T08:58:22;11.40;99.90
39503;DHT22;26970;49.900;10.774;2023-03-21T09:00:47;11.50;99.90
39503;DHT22;26970;49.900;10.774;2023-03-21T09:03:13;11.70;99.90
39503;DHT22;26970;49.900;10.774;2023-03-21T09:05:38;11.70;99.90
39503;DHT22;26970;49.900;10.774;2023-03-21T09:08:05;11.70;99.90
39503;DHT22;26970;49.900;10.774;2023-03-21T09:10:31;11.70;99.90
39503;DHT22;26970;49.900;10.774;2023-03-21T09:12:57;11.80;99.90
39503;DHT22;26970;49.900;10.774;2023-03-21T09:15:26;11.10;99.90
39503;DHT22;26970;49.900;10.774;2023-03-21T09:17:53;11.90;99.90
39503;DHT22;26970;49.900;10.774;2023-03-21T09:20:22;11.90;99.90
39503;DHT22;26970;49.900;10.774;2023-03-21T09:22:55;11.90;99.90
39503;DHT22;26970;49.900;10.774;2023-03-21T09:25:21;11.70;99.90
39503;DHT22;26970;49.900;10.774;2023-03-21T09:27:48;11.80;99.90
39503;DHT22;26970;49.900;10.774;2023-03-21T09:30:17;11.90;99.90
39503;DHT22;26970;49.900;10.774;2023-03-21T09:32:44;12.10;99.90
39503;DHT22;26970;49.900;10.774;2023-03-21T09:35:15;12.30;99.90
39503;DHT22;26970;49.900;10.774;2023-03-21T09:37:43;12.40;99.90
39503;DHT22;26970;49.900;10.774;2023-03-21T09:40:18;12.50;99.90
39503;DHT22;26970;49.900;10.774;2023-03-21T09:46:34;12.30;99.90
39503;DHT22;26970;49.900;10.774;2023-03-21T09:51:09;12.30;99.90
39503;DHT22;26970;49.900;10.774;2023-03-21T09:53:40;12.50;99.90
39503;DHT22;26970;49.900;10.774;2023-03-21T09:56:09;12.70;99.90
39503;DHT22;26970;49.900;10.774;2023-03-21T09:58:41;12.70;99.90
39503;DHT22;26970;49.900;10.774;2023-03-21T10:01:09;12.70;99.90
39503;DHT22;26970;49.900;10.774;2023-03-21T10:03:47;12.70;99.90
39503;DHT22;26970;49.900;10.774;2023-03-21T10:06:17;13.00;99.90
39503;DHT22;26970;49.900;10.774;2023-03-21T10:08:47;13.10;99.90
39503;DHT22;26970;49.900;10.774;2023-03-21T10:13:48;13.10;99.90
39503;DHT22;26970;49.900;10.774;2023-03-21T10:16:25;13.10;99.90
39503;DHT22;26970;49.900;10.774;2023-03-21T10:18:53;13.10;99.90
39503;DHT22;26970;49.900;10.774;2023-03-21T10:21:25;13.10;99.90
39503;DHT22;26970;49.900;10.774;2023-03-21T10:23:53;13.10;99.90
39503;DHT22;26970;49.900;10.774;2023-03-21T10:26:22;13.20;99.90
39503;DHT22;26970;49.900;10.774;2023-03-21T10:28:48;13.20;99.90
39503;DHT22;26970;49.900;10.774;2023-03-21T10:31:17;13.20;99.90
39503;DHT22;26970;49.900;10.774;2023-03-21T10:33:45;13.20;99.90
39503;DHT22;26970;49.900;10.774;2023-03-21T10:36:16;13.10;99.90
39503;DHT22;26970;49.900;10.774;2023-03-21T10:38:46;13.30;99.90
39503;DHT22;26970;49.900;10.774;2023-03-21T10:41:12;13.40;99.90
39503;DHT22;26970;49.900;10.774;2023-03-21T10:43:39;13.50;99.90
39503;DHT22;26970;49.900;10.774;2023-03-21T10:46:32;13.50;99.90
39503;DHT22;26970;49.900;10.774;2023-03-21T10:48:59;13.40;99.90
39503;DHT22;26970;49.900;10.774;2023-03-21T10:51:30;13.60;99.90
39503;DHT22;26970;49.900;10.774;2023-03-21T10:54:00;13.40;99.90
39503;DHT22;26970;49.900;10.774;2023-03-21T10:56:30;13.50;99.90
39503;DHT22;26970;49.900;10.774;2023-03-21T10:58:57;13.60;99.90
39503;DHT22;26970;49.900;10.774;2023-03-21T11:01:28;13.70;99.90
39503;DHT22;26970;49.900;10.774;2023-03-21T11:03:59;13.80;99.90
39503;DHT22;26970;49.900;10.774;2023-03-21T11:06:28;13.80;99.90
39503;DHT22;26970;49.900;10.774;2023-03-21T11:09:07;13.70;99.90
39503;DHT22;26970;49.900;10.774;2023-03-21T11:11:39;13.60;99.90
39503;DHT22;26970;49.900;10.774;2023-03-21T11:14:07;13.70;99.90
39503;DHT22;26970;49.900;10.774;2023-03-21T11:16:48;13.70;99.90
39503;DHT22;26970;49.900;10.774;2023-03-21T11:19:17;13.70;99.90
39503;DHT22;26970;49.900;10.774;2023-03-21T11:21:43;13.90;99.90
39503;DHT22;26970;49.900;10.774;2023-03-21T11:24:15;13.80;99.90
39503;DHT22;26970;49.900;10.774;2023-03-21T11:26:43;13.90;99.90
39503;DHT22;26970;49.900;10.774;2023-03-21T11:31:42;14.10;99.90
39503;DHT22;26970;49.900;10.774;2023-03-21T11:34:24;14.10;99.90
39503;DHT22;26970;49.900;10.774;2023-03-21T11:36:51;14.20;99.90
39503;DHT22;26970;49.900;10.774;2023-03-21T11:39:33;14.20;99.90
39503;DHT22;26970;49.900;10.774;2023-03-21T11:42:01;14.20;99.90
39503;DHT22;26970;49.900;10.774;2023-03-21T11:44:33;14.40;99.90
39503;DHT22;26970;49.900;10.774;2023-03-21T11:47:00;14.50;99.90
39503;DHT22;26970;49.900;10.774;2023-03-21T11:49:26;14.60;99.90
39503;DHT22;26970;49.900;10.774;2023-03-21T11:59:51;14.90;99.90
39503;DHT22;26970;49.900;10.774;2023-03-21T12:05:46;15.00;99.90
39503;DHT22;26970;49.900;10.774;2023-03-21T12:08:38;14.90;99.90
39503;DHT22;26970;49.900;10.774;2023-03-21T12:11:19;14.90;99.90
39503;DHT22;26970;49.900;10.774;2023-03-21T12:14:38;14.80;99.90
39503;DHT22;26970;49.900;10.774;2023-03-21T12:17:19;15.00;99.90
39503;DHT22;26970;49.900;10.774;2023-03-21T12:20:00;15.10;99.90
39503;DHT22;26970;49.900;10.774;2023-03-21T12:25:23;15.20;99.90
39503;DHT22;26970;49.900;10.774;2023-03-21T12:28:10;15.20;99.90
39503;DHT22;26970;49.900;10.774;2023-03-21T12:39:18;15.30;99.90
39503;DHT22;26970;49.900;10.774;2023-03-21T12:44:23;15.30;99.90
39503;DHT22;26970;49.900;10.774;2023-03-21T12:46:57;15.30;99.90
39503;DHT22;26970;49.900;10.774;2023-03-21T12:52:11;15.50;99.90
39503;DHT22;26970;49.900;10.774;2023-03-21T13:03:05;15.70;99.90
39503;DHT22;26970;49.900;10.774;2023-03-21T13:05:39;15.60;99.90
39503;DHT22;26970;49.900;10.774;2023-03-21T13:10:44;15.70;99.90
39503;DHT22;26970;49.900;10.774;2023-03-21T13:13:38;15.60;99.90
39503;DHT22;26970;49.900;10.774;2023-03-21T13:24:26;15.60;99.90
39503;DHT22;26970;49.900;10.774;2023-03-21T13:29:46;15.70;99.90
39503;DHT22;26970;49.900;10.774;2023-03-21T13:32:31;15.70;99.90
39503;DHT22;26970;49.900;10.774;2023-03-21T13:35:02;15.80;99.90
39503;DHT22;26970;49.900;10.774;2023-03-21T13:37:41;15.80;99.90
39503;DHT22;26970;49.900;10.774;2023-03-21T13:40:21;15.70;99.90
39503;DHT22;26970;49.900;10.774;2023-03-21T13:42:52;15.80;99.90
39503;DHT22;26970;49.900;10.774;2023-03-21T13:45:34;15.80;99.90
39503;DHT22;26970;49.900;10.774;2023-03-21T13:48:27;15.70;99.90
39503;DHT22;26970;49.900;10.774;2023-03-21T13:51:03;15.30;99.90
39503;DHT22;26970;49.900;10.774;2023-03-21T13:56:20;15.40;99.90
39503;DHT22;26970;49.900;10.774;2023-03-21T14:01:33;15.60;99.90
39503;DHT22;26970;49.900;10.774;2023-03-21T14:04:25;15.50;99.90
39503;DHT22;26970;49.900;10.774;2023-03-21T14:07:07;15.50;99.90
39503;DHT22;26970;49.900;10.774;2023-03-21T14:09:39;16.00;99.90
39503;DHT22;26970;49.900;10.774;2023-03-21T14:12:11;15.50;99.90
39503;DHT22;26970;49.900;10.774;2023-03-21T14:14:45;15.60;99.90
39503;DHT22;26970;49.900;10.774;2023-03-21T14:17:12;15.70;99.90
39503;DHT22;26970;49.900;10.774;2023-03-21T14:19:38;15.60;99.90
39503;DHT22;26970;49.900;10.774;2023-03-21T14:22:10;15.60;99.90
39503;DHT22;26970;49.900;10.774;2023-03-21T14:24:37;15.60;99.90
39503;DHT22;26970;49.900;10.774;2023-03-21T14:27:04;15.60;99.90
39503;DHT22;26970;49.900;10.774;2023-03-21T14:29:33;15.60;99.90
39503;DHT22;26970;49.900;10.774;2023-03-21T14:32:00;15.60;99.90
39503;DHT22;26970;49.900;10.774;2023-03-21T14:34:28;15.50;99.90
39503;DHT22;26970;49.900;10.774;2023-03-21T14:36:56;15.40;99.90
39503;DHT22;26970;49.900;10.774;2023-03-21T14:39:32;15.40;99.90
39503;DHT22;26970;49.900;10.774;2023-03-21T14:42:09;15.40;99.90
39503;DHT22;26970;49.900;10.774;2023-03-21T14:44:40;15.40;99.90
39503;DHT22;26970;49.900;10.774;2023-03-21T14:47:15;15.30;99.90
39503;DHT22;26970;49.900;10.774;2023-03-21T14:49:41;15.30;99.90
39503;DHT22;26970;49.900;10.774;2023-03-21T14:52:10;15.30;99.90
39503;DHT22;26970;49.900;10.774;2023-03-21T14:54:43;15.20;99.90
39503;DHT22;26970;49.900;10.774;2023-03-21T14:57:14;15.20;99.90
39503;DHT22;26970;49.900;10.774;2023-03-21T14:59:43;15.20;99.90
39503;DHT22;26970;49.900;10.774;2023-03-21T15:02:33;15.20;99.90
39503;DHT22;26970;49.900;10.774;2023-03-21T15:07:38;15.10;99.90
39503;DHT22;26970;49.900;10.774;2023-03-21T15:10:12;15.10;99.90
39503;DHT22;26970;49.900;10.774;2023-03-21T15:12:58;15.10;99.90
39503;DHT22;26970;49.900;10.774;2023-03-21T15:15:26;15.00;99.90
39503;DHT22;26970;49.900;10.774;2023-03-21T15:17:53;15.00;99.90
39503;DHT22;26970;49.900;10.774;2023-03-21T15:20:24;14.90;99.90
39503;DHT22;26970;49.900;10.774;2023-03-21T15:22:54;14.80;99.90
39503;DHT22;26970;49.900;10.774;2023-03-21T15:25:26;14.70;99.90
39503;DHT22;26970;49.900;10.774;2023-03-21T15:27:53;14.70;99.90
39503;DHT22;26970;49.900;10.774;2023-03-21T15:30:28;14.60;99.90
39503;DHT22;26970;49.900;10.774;2023-03-21T15:32:55;14.50;99.90
39503;DHT22;26970;49.900;10.774;2023-03-21T15:35:26;14.40;99.90
39503;DHT22;26970;49.900;10.774;2023-03-21T15:37:54;14.30;99.90
39503;DHT22;26970;49.900;10.774;2023-03-21T15:40:22;14.20;99.90
39503;DHT22;26970;49.900;10.774;2023-03-21T15:42:49;14.10;99.90
39503;DHT22;26970;49.900;10.774;2023-03-21T15:45:26;14.10;99.90
39503;DHT22;26970;49.900;10.774;2023-03-21T15:47:55;14.00;99.90
39503;DHT22;26970;49.900;10.774;2023-03-21T15:52:58;13.90;99.90
39503;DHT22;26970;49.900;10.774;2023-03-21T15:55:37;13.80;99.90
39503;DHT22;26970;49.900;10.774;2023-03-21T15:58:12;13.70;99.90
39503;DHT22;26970;49.900;10.774;2023-03-21T16:00:42;13.60;99.90
39503;DHT22;26970;49.900;10.774;2023-03-21T16:06:13;13.50;99.90
39503;DHT22;26970;49.900;10.774;2023-03-21T16:08:47;13.40;99.90
39503;DHT22;26970;49.900;10.774;2023-03-21T16:11:29;13.30;99.90
39503;DHT22;26970;49.900;10.774;2023-03-21T16:14:01;13.30;99.90
39503;DHT22;26970;49.900;10.774;2023-03-21T16:16:28;13.20;99.90
39503;DHT22;26970;49.900;10.774;2023-03-21T16:18:55;13.10;99.90
39503;DHT22;26970;49.900;10.774;2023-03-21T16:21:24;13.00;99.90
39503;DHT22;26970;49.900;10.774;2023-03-21T16:23:51;13.00;99.90
39503;DHT22;26970;49.900;10.774;2023-03-21T16:26:22;12.90;99.90
39503;DHT22;26970;49.900;10.774;2023-03-21T16:28:48;12.80;99.90
39503;DHT22;26970;49.900;10.774;2023-03-21T16:31:16;12.60;99.90
39503;DHT22;26970;49.900;10.774;2023-03-21T16:33:42;12.50;99.90
39503;DHT22;26970;49.900;10.774;2023-03-21T16:36:15;12.30;99.90
39503;DHT22;26970;49.900;10.774;2023-03-21T16:38:43;12.30;99.90
39503;DHT22;26970;49.900;10.774;2023-03-21T16:41:11;12.10;99.90
39503;DHT22;26970;49.900;10.774;2023-03-21T16:43:37;12.10;99.90
39503;DHT22;26970;49.900;10.774;2023-03-21T16:46:19;12.00;99.90
39503;DHT22;26970;49.900;10.774;2023-03-21T16:48:47;11.90;99.90
39503;DHT22;26970;49.900;10.774;2023-03-21T16:51:14;11.80;99.90
39503;DHT22;26970;49.900;10.774;2023-03-21T16:53:41;11.80;99.90
39503;DHT22;26970;49.900;10.774;2023-03-21T16:56:13;11.70;99.90
39503;DHT22;26970;49.900;10.774;2023-03-21T16:58:39;11.70;99.90
39503;DHT22;26970;49.900;10.774;2023-03-21T17:01:05;11.60;99.90
39503;DHT22;26970;49.900;10.774;2023-03-21T17:03:30;11.50;99.90
39503;DHT22;26970;49.900;10.774;2023-03-21T17:05:58;11.50;99.90
39503;DHT22;26970;49.900;10.774;2023-03-21T17:08:24;11.40;99.90
39503;DHT22;26970;49.900;10.774;2023-03-21T17:10:52;11.40;99.90
39503;DHT22;26970;49.900;10.774;2023-03-21T17:13:18;11.40;99.90
39503;DHT22;26970;49.900;10.774;2023-03-21T17:15:43;11.30;99.90
39503;DHT22;26970;49.900;10.774;2023-03-21T17:18:09;11.30;99.90
39503;DHT22;26970;49.900;10.774;2023-03-21T17:20:36;11.20;99.90
39503;DHT22;26970;49.900;10.774;2023-03-21T17:23:04;11.20;99.90
39503;DHT22;26970;49.900;10.774;2023-03-21T17:25:29;11.10;99.90